sensor_id;sensor_type;location;lat;lon;timestamp;P1;durP1;ratioP1;P2;durP2;ratioP2
16502;SDS011;53067;48.114;11.694;2023-02-26T00:01:38;1.70;;;1.60;;
16502;SDS011;53067;48.114;11.694;2023-02-26T00:04:06;1.60;;;1.50;;
16502;SDS011;53067;48.114;11.694;2023-02-26T00:06:36;1.90;;;1.80;;
16502;SDS011;53067;48.114;11.694;2023-02-26T00:09:06;1.70;;;1.60;;
16502;SDS011;53067;48.114;11.694;2023-02-26T00:11:34;2.00;;;1.90;;
16502;SDS011;53067;48.114;11.694;2023-02-26T00:14:02;1.63;;;1.57;;
16502;SDS011;53067;48.114;11.694;2023-02-26T00:16:33;2.30;;;1.57;;
16502;SDS011;53067;48.114;11.694;2023-02-26T00:19:02;1.90;;;1.80;;
16502;SDS011;53067;48.114;11.694;2023-02-26T00:21:31;1.93;;;1.73;;
16502;SDS011;53067;48.114;11.694;2023-02-26T00:24:00;1.70;;;1.60;;
16502;SDS011;53067;48.114;11.694;2023-02-26T00:26:29;1.73;;;1.63;;
16502;SDS011;53067;48.114;11.694;2023-02-26T00:28:57;1.83;;;1.73;;
16502;SDS011;53067;48.114;11.694;2023-02-26T00:31:25;1.80;;;1.70;;
16502;SDS011;53067;48.114;11.694;2023-02-26T00:33:54;2.80;;;1.90;;
16502;SDS011;53067;48.114;11.694;2023-02-26T00:36:35;2.20;;;2.00;;
16502;SDS011;53067;48.114;11.694;2023-02-26T00:39:38;3.77;;;1.77;;
16502;SDS011;53067;48.114;11.694;2023-02-26T00:42:18;2.27;;;2.07;;
16502;SDS011;53067;48.114;11.694;2023-02-26T00:44:46;2.00;;;1.90;;
16502;SDS011;53067;48.114;11.694;2023-02-26T00:50:22;1.97;;;1.73;;
16502;SDS011;53067;48.114;11.694;2023-02-26T00:53:02;1.80;;;1.70;;
16502;SDS011;53067;48.114;11.694;2023-02-26T00:55:31;1.90;;;1.80;;
16502;SDS011;53067;48.114;11.694;2023-02-26T00:57:58;2.00;;;1.90;;
16502;SDS011;53067;48.114;11.694;2023-02-26T01:00:26;1.87;;;1.77;;
16502;SDS011;53067;48.114;11.694;2023-02-26T01:02:54;2.10;;;2.00;;
16502;SDS011;53067;48.114;11.694;2023-02-26T01:05:21;2.03;;;1.93;;
16502;SDS011;53067;48.114;11.694;2023-02-26T01:10:29;2.20;;;2.00;;
16502;SDS011;53067;48.114;11.694;2023-02-26T01:12:57;1.97;;;1.87;;
16502;SDS011;53067;48.114;11.694;2023-02-26T01:15:25;2.00;;;1.90;;
16502;SDS011;53067;48.114;11.694;2023-02-26T01:18:02;2.07;;;1.90;;
16502;SDS011;53067;48.114;11.694;2023-02-26T01:20:37;2.40;;;2.03;;
16502;SDS011;53067;48.114;11.694;2023-02-26T01:23:24;2.47;;;2.30;;
16502;SDS011;53067;48.114;11.694;2023-02-26T01:26:20;3.20;;;2.20;;
16502;SDS011;53067;48.114;11.694;2023-02-26T01:28:48;2.10;;;2.00;;
16502;SDS011;53067;48.114;11.694;2023-02-26T01:31:25;3.20;;;2.30;;
16502;SDS011;53067;48.114;11.694;2023-02-26T01:34:10;2.10;;;2.00;;
16502;SDS011;53067;48.114;11.694;2023-02-26T01:36:50;2.00;;;1.90;;
16502;SDS011;53067;48.114;11.694;2023-02-26T01:39:28;2.13;;;2.03;;
16502;SDS011;53067;48.114;11.694;2023-02-26T01:44:54;1.77;;;1.60;;
16502;SDS011;53067;48.114;11.694;2023-02-26T01:47:27;2.60;;;1.90;;
16502;SDS011;53067;48.114;11.694;2023-02-26T01:49:56;2.10;;;2.00;;
16502;SDS011;53067;48.114;11.694;2023-02-26T01:55:22;1.83;;;1.73;;
16502;SDS011;53067;48.114;11.694;2023-02-26T01:57:48;1.90;;;1.80;;
16502;SDS011;53067;48.114;11.694;2023-02-26T02:00:18;1.90;;;1.80;;
16502;SDS011;53067;48.114;11.694;2023-02-26T02:02:45;1.83;;;1.73;;
16502;SDS011;53067;48.114;11.694;2023-02-26T02:08:00;2.10;;;2.00;;
16502;SDS011;53067;48.114;11.694;2023-02-26T02:10:28;1.77;;;1.67;;
16502;SDS011;53067;48.114;11.694;2023-02-26T02:13:13;1.57;;;1.47;;
16502;SDS011;53067;48.114;11.694;2023-02-26T02:15:51;1.70;;;1.53;;
16502;SDS011;53067;48.114;11.694;2023-02-26T02:30:00;1.70;;;1.60;;
16502;SDS011;53067;48.114;11.694;2023-02-26T02:33:04;1.83;;;1.73;;
16502;SDS011;53067;48.114;11.694;2023-02-26T02:36:15;1.50;;;1.47;;
16502;SDS011;53067;48.114;11.694;2023-02-26T02:38:19;1.73;;;1.63;;
16502;SDS011;53067;48.114;11.694;2023-02-26T02:40:50;1.80;;;1.70;;
16502;SDS011;53067;48.114;11.694;2023-02-26T02:43:26;1.80;;;1.70;;
16502;SDS011;53067;48.114;11.694;2023-02-26T02:45:51;1.70;;;1.60;;
16502;SDS011;53067;48.114;11.694;2023-02-26T02:48:26;1.37;;;1.37;;
16502;SDS011;53067;48.114;11.694;2023-02-26T02:50:56;4.10;;;1.80;;
16502;SDS011;53067;48.114;11.694;2023-02-26T02:53:32;1.70;;;1.37;;
16502;SDS011;53067;48.114;11.694;2023-02-26T02:56:03;2.07;;;1.47;;
16502;SDS011;53067;48.114;11.694;2023-02-26T02:58:33;1.43;;;1.33;;
16502;SDS011;53067;48.114;11.694;2023-02-26T03:01:03;1.60;;;1.50;;
16502;SDS011;53067;48.114;11.694;2023-02-26T03:03:37;1.40;;;1.30;;
16502;SDS011;53067;48.114;11.694;2023-02-26T03:06:06;1.63;;;1.50;;
16502;SDS011;53067;48.114;11.694;2023-02-26T03:08:36;1.93;;;1.80;;
16502;SDS011;53067;48.114;11.694;2023-02-26T03:11:06;1.30;;;1.30;;
16502;SDS011;53067;48.114;11.694;2023-02-26T03:13:34;2.07;;;1.40;;
16502;SDS011;53067;48.114;11.694;2023-02-26T03:19:22;2.70;;;1.30;;
16502;SDS011;53067;48.114;11.694;2023-02-26T03:22:03;1.40;;;1.30;;
16502;SDS011;53067;48.114;11.694;2023-02-26T03:27:25;2.00;;;1.37;;
16502;SDS011;53067;48.114;11.694;2023-02-26T03:29:57;1.40;;;1.30;;
16502;SDS011;53067;48.114;11.694;2023-02-26T03:32:30;1.77;;;1.67;;
16502;SDS011;53067;48.114;11.694;2023-02-26T03:35:17;1.07;;;1.07;;
16502;SDS011;53067;48.114;11.694;2023-02-26T03:38:02;2.30;;;1.60;;
16502;SDS011;53067;48.114;11.694;2023-02-26T03:40:36;1.30;;;1.30;;
16502;SDS011;53067;48.114;11.694;2023-02-26T03:43:09;1.60;;;1.30;;
16502;SDS011;53067;48.114;11.694;2023-02-26T03:45:39;1.77;;;1.37;;
16502;SDS011;53067;48.114;11.694;2023-02-26T03:48:09;1.20;;;1.20;;
16502;SDS011;53067;48.114;11.694;2023-02-26T03:50:43;1.70;;;1.60;;
16502;SDS011;53067;48.114;11.694;2023-02-26T03:53:24;3.07;;;1.57;;
16502;SDS011;53067;48.114;11.694;2023-02-26T03:58:35;1.60;;;1.50;;
16502;SDS011;53067;48.114;11.694;2023-02-26T04:01:18;1.30;;;1.20;;
16502;SDS011;53067;48.114;11.694;2023-02-26T04:03:39;3.93;;;1.53;;
16502;SDS011;53067;48.114;11.694;2023-02-26T04:06:07;1.27;;;1.20;;
16502;SDS011;53067;48.114;11.694;2023-02-26T04:08:36;1.43;;;1.33;;
16502;SDS011;53067;48.114;11.694;2023-02-26T04:13:34;1.50;;;1.40;;
16502;SDS011;53067;48.114;11.694;2023-02-26T04:16:02;1.40;;;1.30;;
16502;SDS011;53067;48.114;11.694;2023-02-26T04:18:30;1.63;;;1.53;;
16502;SDS011;53067;48.114;11.694;2023-02-26T04:20:57;1.50;;;1.40;;
16502;SDS011;53067;48.114;11.694;2023-02-26T04:23:25;1.70;;;1.57;;
16502;SDS011;53067;48.114;11.694;2023-02-26T04:25:52;1.40;;;1.30;;
16502;SDS011;53067;48.114;11.694;2023-02-26T04:28:20;1.90;;;1.77;;
16502;SDS011;53067;48.114;11.694;2023-02-26T04:30:47;1.63;;;1.47;;
16502;SDS011;53067;48.114;11.694;2023-02-26T04:33:15;1.67;;;1.57;;
16502;SDS011;53067;48.114;11.694;2023-02-26T04:35:42;1.40;;;1.40;;
16502;SDS011;53067;48.114;11.694;2023-02-26T04:38:10;1.63;;;1.53;;
16502;SDS011;53067;48.114;11.694;2023-02-26T04:40:37;1.63;;;1.50;;
16502;SDS011;53067;48.114;11.694;2023-02-26T04:43:05;1.60;;;1.50;;
16502;SDS011;53067;48.114;11.694;2023-02-26T04:45:32;1.60;;;1.50;;
16502;SDS011;53067;48.114;11.694;2023-02-26T04:48:00;1.53;;;1.43;;
16502;SDS011;53067;48.114;11.694;2023-02-26T04:50:27;1.77;;;1.67;;
16502;SDS011;53067;48.114;11.694;2023-02-26T04:52:55;1.40;;;1.30;;
16502;SDS011;53067;48.114;11.694;2023-02-26T04:55:22;1.47;;;1.37;;
16502;SDS011;53067;48.114;11.694;2023-02-26T04:57:50;2.40;;;2.20;;
16502;SDS011;53067;48.114;11.694;2023-02-26T05:00:17;1.90;;;1.70;;
16502;SDS011;53067;48.114;11.694;2023-02-26T05:02:45;2.43;;;1.70;;
16502;SDS011;53067;48.114;11.694;2023-02-26T05:05:12;1.60;;;1.50;;
16502;SDS011;53067;48.114;11.694;2023-02-26T05:07:40;1.73;;;1.50;;
16502;SDS011;53067;48.114;11.694;2023-02-26T05:10:08;1.53;;;1.50;;
16502;SDS011;53067;48.114;11.694;2023-02-26T05:12:36;1.90;;;1.60;;
16502;SDS011;53067;48.114;11.694;2023-02-26T05:15:04;1.77;;;1.67;;
16502;SDS011;53067;48.114;11.694;2023-02-26T05:17:33;1.47;;;1.37;;
16502;SDS011;53067;48.114;11.694;2023-02-26T05:20:02;1.83;;;1.73;;
16502;SDS011;53067;48.114;11.694;2023-02-26T05:22:30;2.10;;;1.90;;
16502;SDS011;53067;48.114;11.694;2023-02-26T05:24:58;2.70;;;1.77;;
16502;SDS011;53067;48.114;11.694;2023-02-26T05:27:25;2.10;;;1.90;;
16502;SDS011;53067;48.114;11.694;2023-02-26T05:29:53;2.50;;;2.30;;
16502;SDS011;53067;48.114;11.694;2023-02-26T05:32:20;2.70;;;1.70;;
16502;SDS011;53067;48.114;11.694;2023-02-26T05:34:48;4.73;;;2.10;;
16502;SDS011;53067;48.114;11.694;2023-02-26T05:37:15;3.23;;;1.53;;
16502;SDS011;53067;48.114;11.694;2023-02-26T05:39:43;8.20;;;1.43;;
16502;SDS011;53067;48.114;11.694;2023-02-26T05:42:10;5.73;;;2.00;;
16502;SDS011;53067;48.114;11.694;2023-02-26T05:44:38;5.90;;;2.10;;
16502;SDS011;53067;48.114;11.694;2023-02-26T05:47:05;1.70;;;1.60;;
16502;SDS011;53067;48.114;11.694;2023-02-26T05:49:33;3.57;;;2.07;;
16502;SDS011;53067;48.114;11.694;2023-02-26T05:52:00;4.20;;;1.93;;
16502;SDS011;53067;48.114;11.694;2023-02-26T05:54:29;1.97;;;1.87;;
16502;SDS011;53067;48.114;11.694;2023-02-26T05:56:56;1.87;;;1.60;;
16502;SDS011;53067;48.114;11.694;2023-02-26T05:59:24;1.87;;;1.77;;
16502;SDS011;53067;48.114;11.694;2023-02-26T06:01:51;2.20;;;1.83;;
16502;SDS011;53067;48.114;11.694;2023-02-26T06:04:19;2.00;;;1.80;;
16502;SDS011;53067;48.114;11.694;2023-02-26T06:06:46;1.90;;;1.80;;
16502;SDS011;53067;48.114;11.694;2023-02-26T06:09:14;1.97;;;1.80;;
16502;SDS011;53067;48.114;11.694;2023-02-26T06:11:42;2.13;;;1.93;;
16502;SDS011;53067;48.114;11.694;2023-02-26T06:14:09;2.70;;;2.00;;
16502;SDS011;53067;48.114;11.694;2023-02-26T06:16:36;2.47;;;1.73;;
16502;SDS011;53067;48.114;11.694;2023-02-26T06:19:04;3.43;;;2.07;;
16502;SDS011;53067;48.114;11.694;2023-02-26T06:21:32;2.50;;;2.10;;
16502;SDS011;53067;48.114;11.694;2023-02-26T06:23:59;2.17;;;1.80;;
16502;SDS011;53067;48.114;11.694;2023-02-26T06:26:26;3.03;;;1.87;;
16502;SDS011;53067;48.114;11.694;2023-02-26T06:28:54;2.57;;;1.80;;
16502;SDS011;53067;48.114;11.694;2023-02-26T06:31:22;2.17;;;1.97;;
16502;SDS011;53067;48.114;11.694;2023-02-26T06:33:50;2.57;;;1.70;;
16502;SDS011;53067;48.114;11.694;2023-02-26T06:36:17;3.17;;;1.80;;
16502;SDS011;53067;48.114;11.694;2023-02-26T06:38:45;2.70;;;2.40;;
16502;SDS011;53067;48.114;11.694;2023-02-26T06:41:12;4.77;;;2.03;;
16502;SDS011;53067;48.114;11.694;2023-02-26T06:43:40;3.57;;;2.00;;
16502;SDS011;53067;48.114;11.694;2023-02-26T06:46:07;3.87;;;1.80;;
16502;SDS011;53067;48.114;11.694;2023-02-26T06:48:35;1.80;;;1.70;;
16502;SDS011;53067;48.114;11.694;2023-02-26T06:51:02;1.97;;;1.80;;
16502;SDS011;53067;48.114;11.694;2023-02-26T06:53:30;4.23;;;2.00;;
16502;SDS011;53067;48.114;11.694;2023-02-26T06:55:57;1.67;;;1.57;;
16502;SDS011;53067;48.114;11.694;2023-02-26T06:58:25;2.47;;;1.87;;
16502;SDS011;53067;48.114;11.694;2023-02-26T07:00:52;3.10;;;1.63;;
16502;SDS011;53067;48.114;11.694;2023-02-26T07:03:20;2.70;;;1.90;;
16502;SDS011;53067;48.114;11.694;2023-02-26T07:05:50;1.80;;;1.63;;
16502;SDS011;53067;48.114;11.694;2023-02-26T07:08:19;2.33;;;1.97;;
16502;SDS011;53067;48.114;11.694;2023-02-26T07:10:47;3.43;;;2.07;;
16502;SDS011;53067;48.114;11.694;2023-02-26T07:13:15;2.73;;;2.00;;
16502;SDS011;53067;48.114;11.694;2023-02-26T07:15:42;1.70;;;1.60;;
16502;SDS011;53067;48.114;11.694;2023-02-26T07:18:10;2.07;;;1.90;;
16502;SDS011;53067;48.114;11.694;2023-02-26T07:20:38;1.70;;;1.60;;
16502;SDS011;53067;48.114;11.694;2023-02-26T07:23:05;2.03;;;1.90;;
16502;SDS011;53067;48.114;11.694;2023-02-26T07:25:33;1.80;;;1.70;;
16502;SDS011;53067;48.114;11.694;2023-02-26T07:28:00;6.80;;;1.97;;
16502;SDS011;53067;48.114;11.694;2023-02-26T07:30:28;2.23;;;1.70;;
16502;SDS011;53067;48.114;11.694;2023-02-26T07:32:56;2.03;;;1.90;;
16502;SDS011;53067;48.114;11.694;2023-02-26T07:35:23;4.23;;;2.10;;
16502;SDS011;53067;48.114;11.694;2023-02-26T07:37:51;4.50;;;2.87;;
16502;SDS011;53067;48.114;11.694;2023-02-26T07:40:18;2.47;;;2.27;;
16502;SDS011;53067;48.114;11.694;2023-02-26T07:42:46;2.70;;;2.50;;
16502;SDS011;53067;48.114;11.694;2023-02-26T07:45:13;3.27;;;2.43;;
16502;SDS011;53067;48.114;11.694;2023-02-26T07:47:43;4.30;;;2.57;;
16502;SDS011;53067;48.114;11.694;2023-02-26T07:50:10;2.77;;;2.57;;
16502;SDS011;53067;48.114;11.694;2023-02-26T07:52:38;2.57;;;2.47;;
16502;SDS011;53067;48.114;11.694;2023-02-26T07:55:06;4.23;;;3.33;;
16502;SDS011;53067;48.114;11.694;2023-02-26T07:57:35;3.17;;;2.93;;
16502;SDS011;53067;48.114;11.694;2023-02-26T08:00:03;4.27;;;2.33;;
16502;SDS011;53067;48.114;11.694;2023-02-26T08:02:32;2.03;;;1.93;;
16502;SDS011;53067;48.114;11.694;2023-02-26T08:04:59;3.30;;;2.13;;
16502;SDS011;53067;48.114;11.694;2023-02-26T08:07:27;4.40;;;2.63;;
16502;SDS011;53067;48.114;11.694;2023-02-26T08:09:54;4.00;;;2.90;;
16502;SDS011;53067;48.114;11.694;2023-02-26T08:12:22;2.67;;;2.43;;
16502;SDS011;53067;48.114;11.694;2023-02-26T08:14:50;3.00;;;1.87;;
16502;SDS011;53067;48.114;11.694;2023-02-26T08:17:17;3.83;;;1.90;;
16502;SDS011;53067;48.114;11.694;2023-02-26T08:19:45;2.73;;;2.53;;
16502;SDS011;53067;48.114;11.694;2023-02-26T08:22:12;2.93;;;2.70;;
16502;SDS011;53067;48.114;11.694;2023-02-26T08:24:40;6.37;;;4.43;;
16502;SDS011;53067;48.114;11.694;2023-02-26T08:27:07;3.37;;;2.70;;
16502;SDS011;53067;48.114;11.694;2023-02-26T08:29:35;3.80;;;2.40;;
16502;SDS011;53067;48.114;11.694;2023-02-26T08:32:03;3.03;;;2.13;;
16502;SDS011;53067;48.114;11.694;2023-02-26T08:34:30;3.73;;;2.40;;
16502;SDS011;53067;48.114;11.694;2023-02-26T08:36:58;2.47;;;2.30;;
16502;SDS011;53067;48.114;11.694;2023-02-26T08:39:25;3.20;;;2.47;;
16502;SDS011;53067;48.114;11.694;2023-02-26T08:41:53;4.80;;;2.40;;
16502;SDS011;53067;48.114;11.694;2023-02-26T08:44:20;2.73;;;2.13;;
16502;SDS011;53067;48.114;11.694;2023-02-26T08:46:48;2.60;;;2.40;;
16502;SDS011;53067;48.114;11.694;2023-02-26T08:49:15;3.33;;;3.03;;
16502;SDS011;53067;48.114;11.694;2023-02-26T08:51:43;2.67;;;2.40;;
16502;SDS011;53067;48.114;11.694;2023-02-26T08:54:10;2.67;;;2.43;;
16502;SDS011;53067;48.114;11.694;2023-02-26T08:56:38;3.23;;;2.40;;
16502;SDS011;53067;48.114;11.694;2023-02-26T08:59:05;3.13;;;2.83;;
16502;SDS011;53067;48.114;11.694;2023-02-26T09:01:35;22.70;;;13.07;;
16502;SDS011;53067;48.114;11.694;2023-02-26T09:04:03;7.73;;;6.20;;
16502;SDS011;53067;48.114;11.694;2023-02-26T09:06:30;3.30;;;3.00;;
16502;SDS011;53067;48.114;11.694;2023-02-26T09:08:58;2.87;;;2.67;;
16502;SDS011;53067;48.114;11.694;2023-02-26T09:11:25;3.83;;;2.70;;
16502;SDS011;53067;48.114;11.694;2023-02-26T09:13:55;2.93;;;2.73;;
16502;SDS011;53067;48.114;11.694;2023-02-26T09:16:24;3.20;;;3.00;;
16502;SDS011;53067;48.114;11.694;2023-02-26T09:18:52;4.23;;;3.60;;
16502;SDS011;53067;48.114;11.694;2023-02-26T09:21:19;3.00;;;2.80;;
16502;SDS011;53067;48.114;11.694;2023-02-26T09:23:47;3.53;;;2.90;;
16502;SDS011;53067;48.114;11.694;2023-02-26T09:26:15;2.97;;;2.77;;
16502;SDS011;53067;48.114;11.694;2023-02-26T09:28:42;4.43;;;3.47;;
16502;SDS011;53067;48.114;11.694;2023-02-26T09:31:10;5.53;;;4.87;;
16502;SDS011;53067;48.114;11.694;2023-02-26T09:33:37;3.77;;;3.47;;
16502;SDS011;53067;48.114;11.694;2023-02-26T09:36:07;2.83;;;2.30;;
16502;SDS011;53067;48.114;11.694;2023-02-26T09:38:35;2.80;;;2.40;;
16502;SDS011;53067;48.114;11.694;2023-02-26T09:41:08;3.07;;;2.87;;
16502;SDS011;53067;48.114;11.694;2023-02-26T09:49:45;4.10;;;2.97;;
16502;SDS011;53067;48.114;11.694;2023-02-26T09:54:50;3.30;;;3.00;;
16502;SDS011;53067;48.114;11.694;2023-02-26T09:57:37;3.40;;;3.10;;
16502;SDS011;53067;48.114;11.694;2023-02-26T10:00:15;3.27;;;3.00;;
16502;SDS011;53067;48.114;11.694;2023-02-26T10:02:44;2.80;;;2.60;;
16502;SDS011;53067;48.114;11.694;2023-02-26T10:05:22;2.80;;;2.60;;
16502;SDS011;53067;48.114;11.694;2023-02-26T10:10:57;2.97;;;2.77;;
16502;SDS011;53067;48.114;11.694;2023-02-26T10:16:17;3.33;;;3.07;;
16502;SDS011;53067;48.114;11.694;2023-02-26T10:18:48;3.00;;;2.67;;
16502;SDS011;53067;48.114;11.694;2023-02-26T10:21:14;3.17;;;2.93;;
16502;SDS011;53067;48.114;11.694;2023-02-26T10:23:50;4.40;;;3.37;;
16502;SDS011;53067;48.114;11.694;2023-02-26T10:26:24;2.73;;;2.50;;
16502;SDS011;53067;48.114;11.694;2023-02-26T10:32:14;3.07;;;2.87;;
16502;SDS011;53067;48.114;11.694;2023-02-26T10:34:51;3.60;;;3.30;;
16502;SDS011;53067;48.114;11.694;2023-02-26T10:42:58;4.10;;;3.30;;
16502;SDS011;53067;48.114;11.694;2023-02-26T10:45:31;3.10;;;2.90;;
16502;SDS011;53067;48.114;11.694;2023-02-26T10:51:07;8.43;;;5.97;;
16502;SDS011;53067;48.114;11.694;2023-02-26T10:53:47;3.90;;;3.60;;
16502;SDS011;53067;48.114;11.694;2023-02-26T10:56:22;3.10;;;2.90;;
16502;SDS011;53067;48.114;11.694;2023-02-26T10:58:51;3.10;;;2.90;;
16502;SDS011;53067;48.114;11.694;2023-02-26T11:01:21;3.37;;;3.00;;
16502;SDS011;53067;48.114;11.694;2023-02-26T11:03:53;3.60;;;3.37;;
16502;SDS011;53067;48.114;11.694;2023-02-26T11:06:27;4.67;;;4.27;;
16502;SDS011;53067;48.114;11.694;2023-02-26T11:08:59;3.60;;;3.40;;
16502;SDS011;53067;48.114;11.694;2023-02-26T11:11:35;3.10;;;2.90;;
16502;SDS011;53067;48.114;11.694;2023-02-26T11:14:07;3.10;;;2.90;;
16502;SDS011;53067;48.114;11.694;2023-02-26T11:16:47;3.33;;;3.00;;
16502;SDS011;53067;48.114;11.694;2023-02-26T11:19:10;2.93;;;2.73;;
16502;SDS011;53067;48.114;11.694;2023-02-26T11:21:42;3.60;;;3.30;;
16502;SDS011;53067;48.114;11.694;2023-02-26T11:24:16;2.97;;;2.67;;
16502;SDS011;53067;48.114;11.694;2023-02-26T11:26:45;3.20;;;3.00;;
16502;SDS011;53067;48.114;11.694;2023-02-26T11:29:18;4.23;;;3.93;;
16502;SDS011;53067;48.114;11.694;2023-02-26T11:31:53;3.80;;;3.50;;
16502;SDS011;53067;48.114;11.694;2023-02-26T11:34:23;3.17;;;2.97;;
16502;SDS011;53067;48.114;11.694;2023-02-26T11:36:52;4.20;;;3.90;;
16502;SDS011;53067;48.114;11.694;2023-02-26T11:39:26;4.63;;;4.23;;
16502;SDS011;53067;48.114;11.694;2023-02-26T11:41:57;4.70;;;4.30;;
16502;SDS011;53067;48.114;11.694;2023-02-26T11:47:05;3.97;;;3.67;;
16502;SDS011;53067;48.114;11.694;2023-02-26T11:49:33;4.93;;;4.53;;
16502;SDS011;53067;48.114;11.694;2023-02-26T11:52:16;4.27;;;3.87;;
16502;SDS011;53067;48.114;11.694;2023-02-26T11:54:45;4.20;;;3.90;;
16502;SDS011;53067;48.114;11.694;2023-02-26T11:57:16;4.87;;;4.40;;
16502;SDS011;53067;48.114;11.694;2023-02-26T11:59:53;4.10;;;3.73;;
16502;SDS011;53067;48.114;11.694;2023-02-26T12:02:19;4.07;;;3.67;;
16502;SDS011;53067;48.114;11.694;2023-02-26T12:04:54;3.77;;;3.47;;
16502;SDS011;53067;48.114;11.694;2023-02-26T12:07:19;3.43;;;3.23;;
16502;SDS011;53067;48.114;11.694;2023-02-26T12:09:47;2.80;;;2.60;;
16502;SDS011;53067;48.114;11.694;2023-02-26T12:12:23;5.33;;;4.93;;
16502;SDS011;53067;48.114;11.694;2023-02-26T12:20:28;3.03;;;2.83;;
16502;SDS011;53067;48.114;11.694;2023-02-26T12:34:13;2.30;;;2.20;;
16502;SDS011;53067;48.114;11.694;2023-02-26T12:39:31;2.63;;;2.43;;
16502;SDS011;53067;48.114;11.694;2023-02-26T12:47:55;2.70;;;2.50;;
16502;SDS011;53067;48.114;11.694;2023-02-26T12:50:52;2.30;;;2.20;;
16502;SDS011;53067;48.114;11.694;2023-02-26T12:56:19;3.00;;;2.80;;
16502;SDS011;53067;48.114;11.694;2023-02-26T13:05:03;3.37;;;3.17;;
16502;SDS011;53067;48.114;11.694;2023-02-26T13:13:08;2.00;;;1.90;;
16502;SDS011;53067;48.114;11.694;2023-02-26T13:15:52;2.00;;;1.90;;
16502;SDS011;53067;48.114;11.694;2023-02-26T13:18:26;2.43;;;2.30;;
16502;SDS011;53067;48.114;11.694;2023-02-26T13:20:56;2.10;;;2.00;;
16502;SDS011;53067;48.114;11.694;2023-02-26T13:23:29;1.90;;;1.80;;
16502;SDS011;53067;48.114;11.694;2023-02-26T13:26:05;2.20;;;2.00;;
16502;SDS011;53067;48.114;11.694;2023-02-26T13:31:10;2.23;;;2.13;;
16502;SDS011;53067;48.114;11.694;2023-02-26T13:33:44;1.67;;;1.57;;
16502;SDS011;53067;48.114;11.694;2023-02-26T13:36:14;1.67;;;1.57;;
16502;SDS011;53067;48.114;11.694;2023-02-26T13:44:14;1.60;;;1.50;;
16502;SDS011;53067;48.114;11.694;2023-02-26T13:49:22;2.00;;;1.80;;
16502;SDS011;53067;48.114;11.694;2023-02-26T13:51:57;1.63;;;1.53;;
16502;SDS011;53067;48.114;11.694;2023-02-26T13:54:32;1.80;;;1.70;;
16502;SDS011;53067;48.114;11.694;2023-02-26T13:57:24;1.87;;;1.77;;
16502;SDS011;53067;48.114;11.694;2023-02-26T14:02:53;2.80;;;2.60;;
16502;SDS011;53067;48.114;11.694;2023-02-26T14:10:46;1.33;;;1.27;;
16502;SDS011;53067;48.114;11.694;2023-02-26T14:13:22;1.30;;;1.30;;
16502;SDS011;53067;48.114;11.694;2023-02-26T14:15:57;1.23;;;1.23;;
16502;SDS011;53067;48.114;11.694;2023-02-26T14:24:24;1.53;;;1.43;;
16502;SDS011;53067;48.114;11.694;2023-02-26T14:27:06;1.60;;;1.50;;
16502;SDS011;53067;48.114;11.694;2023-02-26T14:29:39;1.70;;;1.60;;
16502;SDS011;53067;48.114;11.694;2023-02-26T14:32:13;2.20;;;2.10;;
16502;SDS011;53067;48.114;11.694;2023-02-26T14:34:52;2.40;;;2.30;;
16502;SDS011;53067;48.114;11.694;2023-02-26T14:37:18;2.90;;;2.70;;
16502;SDS011;53067;48.114;11.694;2023-02-26T14:42:40;3.07;;;2.77;;
16502;SDS011;53067;48.114;11.694;2023-02-26T14:47:37;1.53;;;1.43;;
16502;SDS011;53067;48.114;11.694;2023-02-26T14:50:06;1.93;;;1.73;;
16502;SDS011;53067;48.114;11.694;2023-02-26T14:52:44;1.63;;;1.53;;
16502;SDS011;53067;48.114;11.694;2023-02-26T15:01:03;2.00;;;1.83;;
16502;SDS011;53067;48.114;11.694;2023-02-26T15:12:02;2.23;;;1.93;;
16502;SDS011;53067;48.114;11.694;2023-02-26T15:14:35;3.50;;;3.20;;
16502;SDS011;53067;48.114;11.694;2023-02-26T15:20:03;2.90;;;2.70;;
16502;SDS011;53067;48.114;11.694;2023-02-26T15:25:35;3.50;;;2.37;;
16502;SDS011;53067;48.114;11.694;2023-02-26T15:28:05;2.50;;;2.30;;
16502;SDS011;53067;48.114;11.694;2023-02-26T15:30:35;2.43;;;2.23;;
16502;SDS011;53067;48.114;11.694;2023-02-26T15:33:04;2.80;;;2.50;;
16502;SDS011;53067;48.114;11.694;2023-02-26T15:35:34;2.10;;;2.00;;
16502;SDS011;53067;48.114;11.694;2023-02-26T15:38:01;2.23;;;2.13;;
16502;SDS011;53067;48.114;11.694;2023-02-26T15:40:31;3.97;;;2.83;;
16502;SDS011;53067;48.114;11.694;2023-02-26T15:43:00;2.67;;;2.40;;
16502;SDS011;53067;48.114;11.694;2023-02-26T15:48:16;4.67;;;3.90;;
16502;SDS011;53067;48.114;11.694;2023-02-26T15:50:59;5.30;;;3.40;;
16502;SDS011;53067;48.114;11.694;2023-02-26T15:53:30;4.43;;;4.03;;
16502;SDS011;53067;48.114;11.694;2023-02-26T15:56:03;3.93;;;3.63;;
16502;SDS011;53067;48.114;11.694;2023-02-26T15:58:43;2.57;;;2.43;;
16502;SDS011;53067;48.114;11.694;2023-02-26T16:01:05;2.97;;;2.67;;
16502;SDS011;53067;48.114;11.694;2023-02-26T16:03:33;2.90;;;2.70;;
16502;SDS011;53067;48.114;11.694;2023-02-26T16:06:05;3.23;;;2.53;;
16502;SDS011;53067;48.114;11.694;2023-02-26T16:08:34;3.07;;;2.87;;
16502;SDS011;53067;48.114;11.694;2023-02-26T16:11:03;3.93;;;3.00;;
16502;SDS011;53067;48.114;11.694;2023-02-26T16:13:32;2.70;;;2.50;;
16502;SDS011;53067;48.114;11.694;2023-02-26T16:16:06;3.07;;;2.77;;
16502;SDS011;53067;48.114;11.694;2023-02-26T16:18:36;2.87;;;2.67;;
16502;SDS011;53067;48.114;11.694;2023-02-26T16:21:06;3.50;;;2.80;;
16502;SDS011;53067;48.114;11.694;2023-02-26T16:23:45;4.63;;;4.23;;
16502;SDS011;53067;48.114;11.694;2023-02-26T16:26:17;3.10;;;2.90;;
16502;SDS011;53067;48.114;11.694;2023-02-26T16:28:50;3.53;;;3.03;;
16502;SDS011;53067;48.114;11.694;2023-02-26T16:31:22;5.17;;;3.07;;
16502;SDS011;53067;48.114;11.694;2023-02-26T16:33:59;2.87;;;2.40;;
16502;SDS011;53067;48.114;11.694;2023-02-26T16:36:30;2.73;;;2.53;;
16502;SDS011;53067;48.114;11.694;2023-02-26T16:39:01;3.43;;;2.50;;
16502;SDS011;53067;48.114;11.694;2023-02-26T16:41:31;3.03;;;2.80;;
16502;SDS011;53067;48.114;11.694;2023-02-26T16:44:01;2.90;;;2.63;;
16502;SDS011;53067;48.114;11.694;2023-02-26T16:46:35;3.50;;;2.67;;
16502;SDS011;53067;48.114;11.694;2023-02-26T16:49:11;3.43;;;3.03;;
16502;SDS011;53067;48.114;11.694;2023-02-26T16:51:46;2.40;;;2.20;;
16502;SDS011;53067;48.114;11.694;2023-02-26T16:54:19;1.73;;;1.63;;
16502;SDS011;53067;48.114;11.694;2023-02-26T16:56:56;2.10;;;2.00;;
16502;SDS011;53067;48.114;11.694;2023-02-26T16:59:32;2.03;;;1.93;;
16502;SDS011;53067;48.114;11.694;2023-02-26T17:02:11;2.17;;;2.00;;
16502;SDS011;53067;48.114;11.694;2023-02-26T17:04:39;2.00;;;1.90;;
16502;SDS011;53067;48.114;11.694;2023-02-26T17:07:14;2.20;;;2.00;;
16502;SDS011;53067;48.114;11.694;2023-02-26T17:09:46;3.03;;;2.73;;
16502;SDS011;53067;48.114;11.694;2023-02-26T17:12:16;2.33;;;2.13;;
16502;SDS011;53067;48.114;11.694;2023-02-26T17:14:46;2.23;;;2.13;;
16502;SDS011;53067;48.114;11.694;2023-02-26T17:17:24;2.63;;;2.43;;
16502;SDS011;53067;48.114;11.694;2023-02-26T17:19:52;3.20;;;2.67;;
16502;SDS011;53067;48.114;11.694;2023-02-26T17:22:24;2.50;;;2.30;;
16502;SDS011;53067;48.114;11.694;2023-02-26T17:24:53;2.50;;;2.30;;
16502;SDS011;53067;48.114;11.694;2023-02-26T17:27:29;2.60;;;2.40;;
16502;SDS011;53067;48.114;11.694;2023-02-26T17:29:58;2.30;;;2.10;;
16502;SDS011;53067;48.114;11.694;2023-02-26T17:32:29;3.43;;;2.47;;
16502;SDS011;53067;48.114;11.694;2023-02-26T17:34:56;2.97;;;2.73;;